sensor_id;sensor_type;location;lat;lon;timestamp;pressure;altitude;pressure_sealevel;temperature;humidity
77469;BME280;68840;50.272;12.818;2023-04-15T00:00:06;94805;;;5.7;73.4
77469;BME280;68840;50.272;12.818;2023-04-15T00:02:13;94798;;;5.7;73.4
77469;BME280;68840;50.272;12.818;2023-04-15T00:04:05;94799;;;5.7;73.3
77469;BME280;68840;50.272;12.818;2023-04-15T00:06:06;94795;;;5.7;73.6
77469;BME280;68840;50.272;12.818;2023-04-15T00:08:06;94794;;;5.7;73.6
77469;BME280;68840;50.272;12.818;2023-04-15T00:10:06;94791;;;5.7;73.7
77469;BME280;68840;50.272;12.818;2023-04-15T00:12:05;94789;;;5.7;73.7
77469;BME280;68840;50.272;12.818;2023-04-15T00:14:06;94784;;;5.7;73.6
77469;BME280;68840;50.272;12.818;2023-04-15T00:16:07;94779;;;5.7;73.2
77469;BME280;68840;50.272;12.818;2023-04-15T00:18:07;94780;;;5.6;72.6
77469;BME280;68840;50.272;12.818;2023-04-15T00:20:06;94780;;;5.6;72.4
77469;BME280;68840;50.272;12.818;2023-04-15T00:22:06;94781;;;5.6;73.2
77469;BME280;68840;50.272;12.818;2023-04-15T00:24:05;94778;;;5.6;73.5
77469;BME280;68840;50.272;12.818;2023-04-15T00:26:06;94775;;;5.6;73.5
77469;BME280;68840;50.272;12.818;2023-04-15T00:28:05;94777;;;5.6;73.8
77469;BME280;68840;50.272;12.818;2023-04-15T00:30:06;94776;;;5.6;74.1
77469;BME280;68840;50.272;12.818;2023-04-15T00:32:05;94774;;;5.6;74.0
77469;BME280;68840;50.272;12.818;2023-04-15T00:34:05;94774;;;5.6;74.0
77469;BME280;68840;50.272;12.818;2023-04-15T00:36:06;94772;;;5.6;73.7
77469;BME280;68840;50.272;12.818;2023-04-15T00:38:07;94772;;;5.6;73.6
77469;BME280;68840;50.272;12.818;2023-04-15T00:40:11;94773;;;5.6;73.9
77469;BME280;68840;50.272;12.818;2023-04-15T00:42:05;94767;;;5.6;74.0
77469;BME280;68840;50.272;12.818;2023-04-15T00:44:05;94765;;;5.6;74.0
77469;BME280;68840;50.272;12.818;2023-04-15T00:46:06;94762;;;5.6;73.9
77469;BME280;68840;50.272;12.818;2023-04-15T00:48:05;94761;;;5.6;73.7
77469;BME280;68840;50.272;12.818;2023-04-15T00:50:06;94764;;;5.6;73.3
77469;BME280;68840;50.272;12.818;2023-04-15T00:52:06;94763;;;5.6;72.8
77469;BME280;68840;50.272;12.818;2023-04-15T00:54:06;94762;;;5.6;73.3
77469;BME280;68840;50.272;12.818;2023-04-15T00:56:06;94763;;;5.6;73.3
77469;BME280;68840;50.272;12.818;2023-04-15T00:58:06;94761;;;5.6;73.5
77469;BME280;68840;50.272;12.818;2023-04-15T01:00:08;94759;;;5.6;72.7
77469;BME280;68840;50.272;12.818;2023-04-15T01:02:06;94757;;;5.6;73.1
77469;BME280;68840;50.272;12.818;2023-04-15T01:04:05;94756;;;5.6;72.7
77469;BME280;68840;50.272;12.818;2023-04-15T01:06:06;94756;;;5.6;73.0
77469;BME280;68840;50.272;12.818;2023-04-15T01:08:05;94757;;;5.6;72.7
77469;BME280;68840;50.272;12.818;2023-04-15T01:10:06;94760;;;5.6;73.6
77469;BME280;68840;50.272;12.818;2023-04-15T01:12:07;94755;;;5.6;74.0
77469;BME280;68840;50.272;12.818;2023-04-15T01:14:07;94754;;;5.6;74.1
77469;BME280;68840;50.272;12.818;2023-04-15T01:16:07;94753;;;5.5;74.0
77469;BME280;68840;50.272;12.818;2023-04-15T01:18:06;94753;;;5.5;74.2
77469;BME280;68840;50.272;12.818;2023-04-15T01:20:09;94752;;;5.5;74.2
77469;BME280;68840;50.272;12.818;2023-04-15T01:22:05;94749;;;5.5;74.0
77469;BME280;68840;50.272;12.818;2023-04-15T01:24:09;94746;;;5.5;74.1
77469;BME280;68840;50.272;12.818;2023-04-15T01:26:07;94742;;;5.4;74.1
77469;BME280;68840;50.272;12.818;2023-04-15T01:28:05;94742;;;5.4;74.0
77469;BME280;68840;50.272;12.818;2023-04-15T01:30:07;94737;;;5.4;74.0
77469;BME280;68840;50.272;12.818;2023-04-15T01:32:05;94735;;;5.4;74.1
77469;BME280;68840;50.272;12.818;2023-04-15T01:34:05;94734;;;5.4;74.1
77469;BME280;68840;50.272;12.818;2023-04-15T01:36:07;94726;;;5.4;74.3
77469;BME280;68840;50.272;12.818;2023-04-15T01:38:07;94726;;;5.4;74.5
77469;BME280;68840;50.272;12.818;2023-04-15T01:40:06;94724;;;5.4;74.4
77469;BME280;68840;50.272;12.818;2023-04-15T01:42:05;94725;;;5.4;74.5
77469;BME280;68840;50.272;12.818;2023-04-15T01:44:07;94723;;;5.4;74.6
77469;BME280;68840;50.272;12.818;2023-04-15T01:46:06;94721;;;5.4;74.6
77469;BME280;68840;50.272;12.818;2023-04-15T01:48:06;94724;;;5.4;74.4
77469;BME280;68840;50.272;12.818;2023-04-15T01:50:06;94723;;;5.4;74.6
77469;BME280;68840;50.272;12.818;2023-04-15T01:52:05;94718;;;5.4;74.7
77469;BME280;68840;50.272;12.818;2023-04-15T01:54:06;94716;;;5.4;74.7
77469;BME280;68840;50.272;12.818;2023-04-15T01:56:06;94713;;;5.4;74.6
77469;BME280;68840;50.272;12.818;2023-04-15T01:58:05;94712;;;5.4;74.8
77469;BME280;68840;50.272;12.818;2023-04-15T02:00:06;94715;;;5.3;74.5
77469;BME280;68840;50.272;12.818;2023-04-15T02:02:05;94714;;;5.3;74.5
77469;BME280;68840;50.272;12.818;2023-04-15T02:04:06;94711;;;5.4;73.9
77469;BME280;68840;50.272;12.818;2023-04-15T02:06:05;94712;;;5.4;74.6
77469;BME280;68840;50.272;12.818;2023-04-15T02:08:05;94714;;;5.4;74.8
77469;BME280;68840;50.272;12.818;2023-04-15T02:10:05;94711;;;5.4;74.8
77469;BME280;68840;50.272;12.818;2023-04-15T02:12:05;94712;;;5.4;73.9
77469;BME280;68840;50.272;12.818;2023-04-15T02:14:05;94712;;;5.4;73.9
77469;BME280;68840;50.272;12.818;2023-04-15T02:16:14;94707;;;5.4;73.8
77469;BME280;68840;50.272;12.818;2023-04-15T02:18:06;94712;;;5.4;73.9
77469;BME280;68840;50.272;12.818;2023-04-15T02:20:07;94714;;;5.4;74.3
77469;BME280;68840;50.272;12.818;2023-04-15T02:22:07;94709;;;5.4;72.3
77469;BME280;68840;50.272;12.818;2023-04-15T02:24:06;94710;;;5.4;73.0
77469;BME280;68840;50.272;12.818;2023-04-15T02:26:07;94708;;;5.4;73.6
77469;BME280;68840;50.272;12.818;2023-04-15T02:28:05;94700;;;5.4;73.5
77469;BME280;68840;50.272;12.818;2023-04-15T02:30:06;94702;;;5.4;72.6
77469;BME280;68840;50.272;12.818;2023-04-15T02:32:06;94701;;;5.4;72.7
77469;BME280;68840;50.272;12.818;2023-04-15T02:34:05;94700;;;5.4;72.4
77469;BME280;68840;50.272;12.818;2023-04-15T02:36:06;94709;;;5.4;72.8
77469;BME280;68840;50.272;12.818;2023-04-15T02:38:05;94711;;;5.4;73.4
77469;BME280;68840;50.272;12.818;2023-04-15T02:40:07;94713;;;5.4;73.5
77469;BME280;68840;50.272;12.818;2023-04-15T02:42:06;94709;;;5.4;73.8
77469;BME280;68840;50.272;12.818;2023-04-15T02:44:06;94707;;;5.4;73.9
77469;BME280;68840;50.272;12.818;2023-04-15T02:46:05;94701;;;5.4;72.1
77469;BME280;68840;50.272;12.818;2023-04-15T02:48:05;94698;;;5.4;73.5
77469;BME280;68840;50.272;12.818;2023-04-15T02:50:06;94695;;;5.4;73.3
77469;BME280;68840;50.272;12.818;2023-04-15T02:52:05;94698;;;5.4;73.6
77469;BME280;68840;50.272;12.818;2023-04-15T02:54:05;94697;;;5.4;73.0
77469;BME280;68840;50.272;12.818;2023-04-15T02:56:06;94694;;;5.4;73.6
77469;BME280;68840;50.272;12.818;2023-04-15T02:58:06;94694;;;5.4;73.5
77469;BME280;68840;50.272;12.818;2023-04-15T03:00:08;94686;;;5.4;73.4
77469;BME280;68840;50.272;12.818;2023-04-15T03:02:07;94690;;;5.3;72.9
77469;BME280;68840;50.272;12.818;2023-04-15T03:04:07;94692;;;5.3;73.4
77469;BME280;68840;50.272;12.818;2023-04-15T03:06:06;94689;;;5.3;73.7
77469;BME280;68840;50.272;12.818;2023-04-15T03:08:05;94687;;;5.3;73.8
77469;BME280;68840;50.272;12.818;2023-04-15T03:10:06;94688;;;5.3;73.9
77469;BME280;68840;50.272;12.818;2023-04-15T03:12:06;94685;;;5.3;73.5
77469;BME280;68840;50.272;12.818;2023-04-15T03:14:05;94685;;;5.3;73.5
77469;BME280;68840;50.272;12.818;2023-04-15T03:16:05;94680;;;5.3;73.2
77469;BME280;68840;50.272;12.818;2023-04-15T03:18:05;94682;;;5.3;73.7
77469;BME280;68840;50.272;12.818;2023-04-15T03:20:06;94678;;;5.3;73.9
77469;BME280;68840;50.272;12.818;2023-04-15T03:22:05;94681;;;5.3;73.7
77469;BME280;68840;50.272;12.818;2023-04-15T03:24:05;94673;;;5.3;73.7
77469;BME280;68840;50.272;12.818;2023-04-15T03:26:05;94674;;;5.3;73.9
77469;BME280;68840;50.272;12.818;2023-04-15T03:28:05;94674;;;5.3;74.0
77469;BME280;68840;50.272;12.818;2023-04-15T03:30:06;94672;;;5.3;73.9
77469;BME280;68840;50.272;12.818;2023-04-15T03:32:05;94677;;;5.3;73.5
77469;BME280;68840;50.272;12.818;2023-04-15T03:34:05;94684;;;5.3;73.6
77469;BME280;68840;50.272;12.818;2023-04-15T03:36:06;94682;;;5.3;73.7
77469;BME280;68840;50.272;12.818;2023-04-15T03:38:05;94682;;;5.3;73.7
77469;BME280;68840;50.272;12.818;2023-04-15T03:40:06;94685;;;5.3;73.9
77469;BME280;68840;50.272;12.818;2023-04-15T03:42:05;94683;;;5.3;73.9
77469;BME280;68840;50.272;12.818;2023-04-15T03:44:05;94675;;;5.3;73.8
77469;BME280;68840;50.272;12.818;2023-04-15T03:46:05;94674;;;5.3;73.5
77469;BME280;68840;50.272;12.818;2023-04-15T03:48:05;94682;;;5.3;73.7
77469;BME280;68840;50.272;12.818;2023-04-15T03:50:06;94685;;;5.4;73.2
77469;BME280;68840;50.272;12.818;2023-04-15T03:52:05;94691;;;5.4;73.5
77469;BME280;68840;50.272;12.818;2023-04-15T03:54:05;94689;;;5.4;72.9
77469;BME280;68840;50.272;12.818;2023-04-15T03:56:05;94699;;;5.4;72.8
77469;BME280;68840;50.272;12.818;2023-04-15T03:58:05;94701;;;5.4;72.9
77469;BME280;68840;50.272;12.818;2023-04-15T04:00:07;94697;;;5.5;72.6
77469;BME280;68840;50.272;12.818;2023-04-15T04:02:05;94700;;;5.5;73.2
77469;BME280;68840;50.272;12.818;2023-04-15T04:04:05;94700;;;5.5;72.6
77469;BME280;68840;50.272;12.818;2023-04-15T04:06:05;94700;;;5.5;72.3
77469;BME280;68840;50.272;12.818;2023-04-15T04:08:05;94706;;;5.6;73.2
77469;BME280;68840;50.272;12.818;2023-04-15T04:10:06;94709;;;5.6;73.7
77469;BME280;68840;50.272;12.818;2023-04-15T04:12:05;94714;;;5.6;73.7
77469;BME280;68840;50.272;12.818;2023-04-15T04:14:05;94713;;;5.6;74.0
77469;BME280;68840;50.272;12.818;2023-04-15T04:16:06;94714;;;5.5;74.1
77469;BME280;68840;50.272;12.818;2023-04-15T04:18:05;94718;;;5.5;74.5
77469;BME280;68840;50.272;12.818;2023-04-15T04:20:06;94716;;;5.5;74.3
77469;BME280;68840;50.272;12.818;2023-04-15T04:22:05;94718;;;5.5;74.3
77469;BME280;68840;50.272;12.818;2023-04-15T04:24:06;94720;;;5.5;74.4
77469;BME280;68840;50.272;12.818;2023-04-15T04:26:05;94723;;;5.5;74.2
77469;BME280;68840;50.272;12.818;2023-04-15T04:28:05;94722;;;5.5;74.7
77469;BME280;68840;50.272;12.818;2023-04-15T04:30:07;94719;;;5.5;74.9
77469;BME280;68840;50.272;12.818;2023-04-15T04:32:06;94723;;;5.6;75.1
77469;BME280;68840;50.272;12.818;2023-04-15T04:34:05;94720;;;5.6;75.1
77469;BME280;68840;50.272;12.818;2023-04-15T04:36:06;94721;;;5.6;75.1
77469;BME280;68840;50.272;12.818;2023-04-15T04:38:05;94724;;;5.5;75.2
77469;BME280;68840;50.272;12.818;2023-04-15T04:40:07;94726;;;5.5;75.3
77469;BME280;68840;50.272;12.818;2023-04-15T04:42:05;94728;;;5.5;75.1
77469;BME280;68840;50.272;12.818;2023-04-15T04:44:06;94728;;;5.5;75.1
77469;BME280;68840;50.272;12.818;2023-04-15T04:46:05;94726;;;5.5;75.2
77469;BME280;68840;50.272;12.818;2023-04-15T04:48:07;94723;;;5.5;75.3
77469;BME280;68840;50.272;12.818;2023-04-15T04:50:06;94722;;;5.5;75.2
77469;BME280;68840;50.272;12.818;2023-04-15T04:52:06;94724;;;5.5;75.3
77469;BME280;68840;50.272;12.818;2023-04-15T04:54:05;94725;;;5.6;75.4
77469;BME280;68840;50.272;12.818;2023-04-15T04:56:05;94723;;;5.6;75.4
77469;BME280;68840;50.272;12.818;2023-04-15T04:58:05;94722;;;5.6;75.5
77469;BME280;68840;50.272;12.818;2023-04-15T05:00:07;94720;;;5.6;75.7
77469;BME280;68840;50.272;12.818;2023-04-15T05:02:06;94722;;;5.6;75.5
77469;BME280;68840;50.272;12.818;2023-04-15T05:04:06;94723;;;5.6;75.8
77469;BME280;68840;50.272;12.818;2023-04-15T05:06:07;94723;;;5.6;75.7
77469;BME280;68840;50.272;12.818;2023-04-15T05:08:06;94722;;;5.6;75.9
77469;BME280;68840;50.272;12.818;2023-04-15T05:10:06;94722;;;5.5;75.5
77469;BME280;68840;50.272;12.818;2023-04-15T05:12:06;94724;;;5.6;75.6
77469;BME280;68840;50.272;12.818;2023-04-15T05:14:05;94722;;;5.6;75.8
77469;BME280;68840;50.272;12.818;2023-04-15T05:16:06;94722;;;5.6;75.8
77469;BME280;68840;50.272;12.818;2023-04-15T05:18:05;94722;;;5.6;75.8
77469;BME280;68840;50.272;12.818;2023-04-15T05:20:06;94723;;;5.5;75.9
77469;BME280;68840;50.272;12.818;2023-04-15T05:22:06;94723;;;5.5;76.0
77469;BME280;68840;50.272;12.818;2023-04-15T05:24:05;94724;;;5.5;76.0
77469;BME280;68840;50.272;12.818;2023-04-15T05:26:05;94726;;;5.5;76.0
77469;BME280;68840;50.272;12.818;2023-04-15T05:28:05;94729;;;5.5;76.0
77469;BME280;68840;50.272;12.818;2023-04-15T05:30:06;94731;;;5.5;76.0
77469;BME280;68840;50.272;12.818;2023-04-15T05:32:05;94738;;;5.5;75.9
77469;BME280;68840;50.272;12.818;2023-04-15T05:34:06;94739;;;5.5;76.2
77469;BME280;68840;50.272;12.818;2023-04-15T05:36:06;94739;;;5.5;76.2
77469;BME280;68840;50.272;12.818;2023-04-15T05:38:06;94742;;;5.6;76.3
77469;BME280;68840;50.272;12.818;2023-04-15T05:40:06;94743;;;5.6;76.0
77469;BME280;68840;50.272;12.818;2023-04-15T05:42:05;94747;;;5.6;75.8
77469;BME280;68840;50.272;12.818;2023-04-15T05:44:05;94748;;;5.6;75.6
77469;BME280;68840;50.272;12.818;2023-04-15T05:46:05;94747;;;5.6;75.6
77469;BME280;68840;50.272;12.818;2023-04-15T05:48:06;94748;;;5.7;75.6
77469;BME280;68840;50.272;12.818;2023-04-15T05:50:06;94747;;;5.7;75.6
77469;BME280;68840;50.272;12.818;2023-04-15T05:52:05;94750;;;5.7;75.8
77469;BME280;68840;50.272;12.818;2023-04-15T05:54:05;94754;;;5.7;75.9
77469;BME280;68840;50.272;12.818;2023-04-15T05:56:05;94755;;;5.8;76.0
77469;BME280;68840;50.272;12.818;2023-04-15T05:58:05;94751;;;5.8;76.2
77469;BME280;68840;50.272;12.818;2023-04-15T06:00:06;94751;;;5.8;76.2
77469;BME280;68840;50.272;12.818;2023-04-15T06:02:06;94750;;;5.8;76.4
77469;BME280;68840;50.272;12.818;2023-04-15T06:04:05;94749;;;5.8;76.4
77469;BME280;68840;50.272;12.818;2023-04-15T06:06:06;94748;;;5.8;76.4
77469;BME280;68840;50.272;12.818;2023-04-15T06:08:05;94748;;;5.8;76.3
77469;BME280;68840;50.272;12.818;2023-04-15T06:10:07;94750;;;5.8;76.4
77469;BME280;68840;50.272;12.818;2023-04-15T06:12:11;94749;;;5.8;76.5
77469;BME280;68840;50.272;12.818;2023-04-15T06:14:05;94748;;;5.9;76.3
77469;BME280;68840;50.272;12.818;2023-04-15T06:16:06;94749;;;5.9;76.7
77469;BME280;68840;50.272;12.818;2023-04-15T06:18:05;94749;;;5.9;76.9
77469;BME280;68840;50.272;12.818;2023-04-15T06:20:07;94751;;;6.0;77.0
77469;BME280;68840;50.272;12.818;2023-04-15T06:22:06;94752;;;6.0;76.8
77469;BME280;68840;50.272;12.818;2023-04-15T06:24:06;94755;;;6.0;77.1
77469;BME280;68840;50.272;12.818;2023-04-15T06:26:05;94759;;;6.1;76.9
77469;BME280;68840;50.272;12.818;2023-04-15T06:28:06;94762;;;6.1;76.8
77469;BME280;68840;50.272;12.818;2023-04-15T06:30:07;94765;;;6.1;76.8
77469;BME280;68840;50.272;12.818;2023-04-15T06:32:05;94767;;;6.1;76.9
77469;BME280;68840;50.272;12.818;2023-04-15T06:34:05;94770;;;6.1;76.9
77469;BME280;68840;50.272;12.818;2023-04-15T06:36:05;94771;;;6.1;76.9
77469;BME280;68840;50.272;12.818;2023-04-15T06:38:06;94772;;;6.1;76.8
77469;BME280;68840;50.272;12.818;2023-04-15T06:40:07;94774;;;6.2;76.7
77469;BME280;68840;50.272;12.818;2023-04-15T06:42:05;94774;;;6.2;76.8
77469;BME280;68840;50.272;12.818;2023-04-15T06:44:05;94773;;;6.2;76.7
77469;BME280;68840;50.272;12.818;2023-04-15T06:46:05;94774;;;6.2;76.5
77469;BME280;68840;50.272;12.818;2023-04-15T06:48:05;94775;;;6.2;76.3
77469;BME280;68840;50.272;12.818;2023-04-15T06:50:06;94781;;;6.3;76.4
77469;BME280;68840;50.272;12.818;2023-04-15T06:52:05;94784;;;6.3;76.3
77469;BME280;68840;50.272;12.818;2023-04-15T06:54:05;94785;;;6.4;76.2
77469;BME280;68840;50.272;12.818;2023-04-15T06:56:06;94786;;;6.4;76.4
77469;BME280;68840;50.272;12.818;2023-04-15T06:58:05;94789;;;6.4;76.9
77469;BME280;68840;50.272;12.818;2023-04-15T07:00:06;94793;;;6.5;76.6
77469;BME280;68840;50.272;12.818;2023-04-15T07:02:07;94792;;;6.6;76.0
77469;BME280;68840;50.272;12.818;2023-04-15T07:04:05;94791;;;6.6;75.5
77469;BME280;68840;50.272;12.818;2023-04-15T07:06:06;94793;;;6.6;75.4
77469;BME280;68840;50.272;12.818;2023-04-15T07:08:06;94796;;;6.6;74.8
77469;BME280;68840;50.272;12.818;2023-04-15T07:10:06;94801;;;6.6;74.9
77469;BME280;68840;50.272;12.818;2023-04-15T07:12:05;94805;;;6.7;74.5
77469;BME280;68840;50.272;12.818;2023-04-15T07:14:05;94805;;;6.7;75.4
77469;BME280;68840;50.272;12.818;2023-04-15T07:16:05;94805;;;6.7;75.2
77469;BME280;68840;50.272;12.818;2023-04-15T07:18:05;94803;;;6.7;75.4
77469;BME280;68840;50.272;12.818;2023-04-15T07:20:07;94802;;;6.7;75.3
77469;BME280;68840;50.272;12.818;2023-04-15T07:22:05;94800;;;6.7;75.4
77469;BME280;68840;50.272;12.818;2023-04-15T07:24:05;94797;;;6.8;75.1
77469;BME280;68840;50.272;12.818;2023-04-15T07:26:06;94796;;;6.8;75.2
77469;BME280;68840;50.272;12.818;2023-04-15T07:28:06;94795;;;6.8;75.2
77469;BME280;68840;50.272;12.818;2023-04-15T07:30:06;94795;;;6.8;74.9
77469;BME280;68840;50.272;12.818;2023-04-15T07:32:05;94795;;;6.8;75.0
77469;BME280;68840;50.272;12.818;2023-04-15T07:34:06;94796;;;6.8;75.1
77469;BME280;68840;50.272;12.818;2023-04-15T07:36:05;94795;;;6.8;75.2
77469;BME280;68840;50.272;12.818;2023-04-15T07:38:05;94793;;;6.9;75.4
77469;BME280;68840;50.272;12.818;2023-04-15T07:40:06;94791;;;6.9;74.9
77469;BME280;68840;50.272;12.818;2023-04-15T07:42:06;94794;;;6.9;74.9
77469;BME280;68840;50.272;12.818;2023-04-15T07:44:05;94794;;;7.0;74.9
77469;BME280;68840;50.272;12.818;2023-04-15T07:46:06;94796;;;7.0;75.3
77469;BME280;68840;50.272;12.818;2023-04-15T07:48:06;94798;;;7.1;75.6
77469;BME280;68840;50.272;12.818;2023-04-15T07:50:06;94801;;;7.1;74.9
77469;BME280;68840;50.272;12.818;2023-04-15T07:52:05;94800;;;7.2;75.6
77469;BME280;68840;50.272;12.818;2023-04-15T07:54:06;94801;;;7.2;75.6
77469;BME280;68840;50.272;12.818;2023-04-15T07:56:06;94805;;;7.3;75.5
77469;BME280;68840;50.272;12.818;2023-04-15T07:58:05;94807;;;7.3;75.6
77469;BME280;68840;50.272;12.818;2023-04-15T08:00:06;94811;;;7.4;75.6
77469;BME280;68840;50.272;12.818;2023-04-15T08:02:05;94816;;;7.4;74.4
77469;BME280;68840;50.272;12.818;2023-04-15T08:04:05;94815;;;7.4;72.0
77469;BME280;68840;50.272;12.818;2023-04-15T08:06:05;94814;;;7.5;72.7
77469;BME280;68840;50.272;12.818;2023-04-15T08:08:06;94815;;;7.5;73.4
77469;BME280;68840;50.272;12.818;2023-04-15T08:10:06;94816;;;7.5;73.6
77469;BME280;68840;50.272;12.818;2023-04-15T08:12:08;94812;;;7.6;72.8
77469;BME280;68840;50.272;12.818;2023-04-15T08:14:05;94812;;;7.6;72.6
77469;BME280;68840;50.272;12.818;2023-04-15T08:16:16;94812;;;7.6;72.6
77469;BME280;68840;50.272;12.818;2023-04-15T08:18:06;94814;;;7.7;73.2
77469;BME280;68840;50.272;12.818;2023-04-15T08:20:06;94817;;;7.7;73.0
77469;BME280;68840;50.272;12.818;2023-04-15T08:22:05;94822;;;7.8;73.6
77469;BME280;68840;50.272;12.818;2023-04-15T08:24:05;94825;;;7.9;73.1
77469;BME280;68840;50.272;12.818;2023-04-15T08:26:06;94828;;;7.9;72.8
77469;BME280;68840;50.272;12.818;2023-04-15T08:28:08;94831;;;7.9;73.3
77469;BME280;68840;50.272;12.818;2023-04-15T08:30:06;94836;;;7.9;73.4
77469;BME280;68840;50.272;12.818;2023-04-15T08:32:06;94840;;;8.0;73.0
77469;BME280;68840;50.272;12.818;2023-04-15T08:34:05;94845;;;8.0;73.0
77469;BME280;68840;50.272;12.818;2023-04-15T08:36:06;94847;;;8.0;72.7
77469;BME280;68840;50.272;12.818;2023-04-15T08:38:06;94847;;;7.9;72.7
77469;BME280;68840;50.272;12.818;2023-04-15T08:40:07;94847;;;8.0;72.7
77469;BME280;68840;50.272;12.818;2023-04-15T08:42:11;94846;;;8.0;72.3
77469;BME280;68840;50.272;12.818;2023-04-15T08:44:06;94851;;;8.0;72.3
77469;BME280;68840;50.272;12.818;2023-04-15T08:46:08;94849;;;7.9;72.6
77469;BME280;68840;50.272;12.818;2023-04-15T08:48:06;94850;;;7.9;72.6
77469;BME280;68840;50.272;12.818;2023-04-15T08:50:08;94852;;;7.9;72.1
77469;BME280;68840;50.272;12.818;2023-04-15T08:52:06;94854;;;7.9;71.8
77469;BME280;68840;50.272;12.818;2023-04-15T08:54:06;94853;;;7.9;71.3
77469;BME280;68840;50.272;12.818;2023-04-15T08:56:06;94852;;;7.9;72.1
77469;BME280;68840;50.272;12.818;2023-04-15T08:58:06;94850;;;7.9;71.7
77469;BME280;68840;50.272;12.818;2023-04-15T09:00:06;94853;;;7.9;71.5
77469;BME280;68840;50.272;12.818;2023-04-15T09:02:07;94854;;;7.9;71.9
77469;BME280;68840;50.272;12.818;2023-04-15T09:04:07;94854;;;7.9;71.9
77469;BME280;68840;50.272;12.818;2023-04-15T09:06:05;94856;;;8.0;72.4
77469;BME280;68840;50.272;12.818;2023-04-15T09:08:05;94859;;;8.0;72.3
77469;BME280;68840;50.272;12.818;2023-04-15T09:10:06;94861;;;8.0;72.2
77469;BME280;68840;50.272;12.818;2023-04-15T09:12:06;94861;;;8.0;72.7
77469;BME280;68840;50.272;12.818;2023-04-15T09:14:05;94862;;;7.9;72.3
77469;BME280;68840;50.272;12.818;2023-04-15T09:16:07;94865;;;7.9;72.6
77469;BME280;68840;50.272;12.818;2023-04-15T09:18:06;94864;;;7.9;72.6
77469;BME280;68840;50.272;12.818;2023-04-15T09:20:08;94865;;;7.9;72.9
77469;BME280;68840;50.272;12.818;2023-04-15T09:22:05;94865;;;7.9;72.3
77469;BME280;68840;50.272;12.818;2023-04-15T09:24:05;94867;;;7.9;72.4
77469;BME280;68840;50.272;12.818;2023-04-15T09:26:06;94868;;;7.9;72.9
77469;BME280;68840;50.272;12.818;2023-04-15T09:28:05;94872;;;7.9;73.0
77469;BME280;68840;50.272;12.818;2023-04-15T09:30:07;94877;;;7.9;73.5
77469;BME280;68840;50.272;12.818;2023-04-15T09:32:09;94886;;;7.9;73.1
77469;BME280;68840;50.272;12.818;2023-04-15T09:34:06;94888;;;7.9;72.4
77469;BME280;68840;50.272;12.818;2023-04-15T09:36:06;94890;;;7.9;72.6
77469;BME280;68840;50.272;12.818;2023-04-15T09:38:07;94891;;;7.9;72.6
77469;BME280;68840;50.272;12.818;2023-04-15T09:40:07;94893;;;7.9;72.5
77469;BME280;68840;50.272;12.818;2023-04-15T09:42:06;94895;;;7.9;72.5
77469;BME280;68840;50.272;12.818;2023-04-15T09:44:06;94900;;;7.9;72.4
77469;BME280;68840;50.272;12.818;2023-04-15T09:46:06;94903;;;7.9;72.7
77469;BME280;68840;50.272;12.818;2023-04-15T09:48:15;94905;;;8.0;72.8
77469;BME280;68840;50.272;12.818;2023-04-15T09:50:06;94905;;;8.0;73.0
77469;BME280;68840;50.272;12.818;2023-04-15T09:52:05;94903;;;8.0;72.9
77469;BME280;68840;50.272;12.818;2023-04-15T09:54:06;94904;;;8.0;72.8
77469;BME280;68840;50.272;12.818;2023-04-15T09:56:07;94904;;;8.1;72.9
77469;BME280;68840;50.272;12.818;2023-04-15T09:58:07;94906;;;8.1;73.1
77469;BME280;68840;50.272;12.818;2023-04-15T10:00:07;94909;;;8.2;73.9
77469;BME280;68840;50.272;12.818;2023-04-15T10:02:06;94909;;;8.2;73.2
77469;BME280;68840;50.272;12.818;2023-04-15T10:04:06;94908;;;8.3;72.6
77469;BME280;68840;50.272;12.818;2023-04-15T10:06:06;94907;;;8.3;72.6
77469;BME280;68840;50.272;12.818;2023-04-15T10:08:06;94906;;;8.3;73.4
77469;BME280;68840;50.272;12.818;2023-04-15T10:10:06;94908;;;8.3;73.4
77469;BME280;68840;50.272;12.818;2023-04-15T10:12:06;94911;;;8.3;72.1
77469;BME280;68840;50.272;12.818;2023-04-15T10:14:07;94912;;;8.3;72.0
77469;BME280;68840;50.272;12.818;2023-04-15T10:16:10;94914;;;8.3;71.3
77469;BME280;68840;50.272;12.818;2023-04-15T10:18:07;94916;;;8.2;71.7
77469;BME280;68840;50.272;12.818;2023-04-15T10:20:06;94916;;;8.2;71.9
77469;BME280;68840;50.272;12.818;2023-04-15T10:22:06;94920;;;8.2;72.7
77469;BME280;68840;50.272;12.818;2023-04-15T10:24:06;94925;;;8.1;72.6
77469;BME280;68840;50.272;12.818;2023-04-15T10:26:06;94927;;;8.1;72.1
77469;BME280;68840;50.272;12.818;2023-04-15T10:28:06;94930;;;8.0;72.0
77469;BME280;68840;50.272;12.818;2023-04-15T10:30:06;94932;;;8.0;72.4
77469;BME280;68840;50.272;12.818;2023-04-15T10:32:06;94932;;;8.0;72.7
77469;BME280;68840;50.272;12.818;2023-04-15T10:34:06;94934;;;7.9;72.5
77469;BME280;68840;50.272;12.818;2023-04-15T10:36:06;94934;;;7.9;72.6
77469;BME280;68840;50.272;12.818;2023-04-15T10:38:31;94937;;;7.8;72.7
77469;BME280;68840;50.272;12.818;2023-04-15T10:40:24;94938;;;7.8;72.8
77469;BME280;68840;50.272;12.818;2023-04-15T10:42:06;94945;;;7.7;72.6
77469;BME280;68840;50.272;12.818;2023-04-15T10:44:07;94949;;;7.7;73.0
77469;BME280;68840;50.272;12.818;2023-04-15T10:46:05;94951;;;7.7;72.8
77469;BME280;68840;50.272;12.818;2023-04-15T10:48:07;94959;;;7.6;73.0
77469;BME280;68840;50.272;12.818;2023-04-15T10:50:06;94962;;;7.5;73.1
77469;BME280;68840;50.272;12.818;2023-04-15T10:52:07;94963;;;7.5;72.9
77469;BME280;68840;50.272;12.818;2023-04-15T10:54:08;94965;;;7.4;72.9
77469;BME280;68840;50.272;12.818;2023-04-15T10:56:06;94968;;;7.3;73.0
77469;BME280;68840;50.272;12.818;2023-04-15T10:58:06;94969;;;7.2;73.5
77469;BME280;68840;50.272;12.818;2023-04-15T11:00:11;94971;;;7.1;73.6
77469;BME280;68840;50.272;12.818;2023-04-15T11:02:06;94974;;;7.1;73.8
77469;BME280;68840;50.272;12.818;2023-04-15T11:04:05;94974;;;7.0;73.7
77469;BME280;68840;50.272;12.818;2023-04-15T11:06:06;94972;;;7.0;73.9
77469;BME280;68840;50.272;12.818;2023-04-15T11:08:07;94971;;;7.0;74.2
77469;BME280;68840;50.272;12.818;2023-04-15T11:12:07;94974;;;7.0;74.5
77469;BME280;68840;50.272;12.818;2023-04-15T11:14:13;94978;;;7.0;74.3
77469;BME280;68840;50.272;12.818;2023-04-15T11:16:06;94978;;;7.0;74.2
77469;BME280;68840;50.272;12.818;2023-04-15T11:18:09;94981;;;7.0;74.1
77469;BME280;68840;50.272;12.818;2023-04-15T11:20:06;94982;;;7.0;74.2
77469;BME280;68840;50.272;12.818;2023-04-15T11:22:07;94985;;;7.0;74.0